createdAt,value
2019-01-15T00:01:36.282Z,5.40
2019-01-15T00:04:03.583Z,6.37
2019-01-15T00:06:30.283Z,5.83
2019-01-15T00:08:57.011Z,6.10
2019-01-15T00:11:23.711Z,5.40
2019-01-15T00:13:50.447Z,6.30
2019-01-15T00:16:17.250Z,5.40
2019-01-15T00:18:43.966Z,6.47
2019-01-15T00:21:11.051Z,6.62
2019-01-15T00:23:37.767Z,6.17
2019-01-15T00:26:04.479Z,5.70
2019-01-15T00:28:31.203Z,6.50
2019-01-15T00:30:58.015Z,6.53
2019-01-15T00:33:24.818Z,6.65
2019-01-15T00:35:51.683Z,6.40
2019-01-15T00:38:18.384Z,6.92
2019-01-15T00:40:45.191Z,6.95
2019-01-15T00:43:11.895Z,7.40
2019-01-15T00:45:38.711Z,7.30
2019-01-15T00:48:05.406Z,7.97
2019-01-15T00:50:32.563Z,8.25
2019-01-15T00:52:59.356Z,8.35
2019-01-15T00:55:26.067Z,9.55
2019-01-15T00:57:52.779Z,9.28
2019-01-15T01:00:21.087Z,8.40
2019-01-15T01:02:48.076Z,8.33
2019-01-15T01:05:15.701Z,9.23
2019-01-15T01:07:42.598Z,9.00
2019-01-15T01:10:10.256Z,9.93
2019-01-15T01:12:37.059Z,9.45
2019-01-15T01:15:05.426Z,9.80
2019-01-15T01:17:32.139Z,9.80
2019-01-15T01:19:58.843Z,8.45
2019-01-15T01:22:25.564Z,9.03
2019-01-15T01:24:52.275Z,9.73
2019-01-15T01:27:18.983Z,10.48
2019-01-15T01:29:45.687Z,9.63
2019-01-15T01:32:12.391Z,10.05
2019-01-15T01:34:39.103Z,11.53
2019-01-15T01:37:07.401Z,9.43
2019-01-15T01:39:34.431Z,10.85
2019-01-15T01:42:01.138Z,10.05
2019-01-15T01:44:27.852Z,9.75
2019-01-15T01:46:54.860Z,9.13
2019-01-15T01:49:21.563Z,9.25
2019-01-15T01:51:48.282Z,9.40
2019-01-15T01:54:15.074Z,9.83
2019-01-15T01:56:41.775Z,9.35
2019-01-15T01:59:08.487Z,9.70
2019-01-15T02:01:35.291Z,9.58
2019-01-15T02:04:02.024Z,9.75
2019-01-15T02:06:29.183Z,10.50
2019-01-15T02:08:55.887Z,9.60
2019-01-15T02:11:22.615Z,10.93
2019-01-15T02:13:49.319Z,12.90
2019-01-15T02:16:16.027Z,12.58
2019-01-15T02:18:42.742Z,13.35
2019-01-15T02:21:09.440Z,13.03
2019-01-15T02:23:36.159Z,14.18
2019-01-15T02:26:03.363Z,14.25
2019-01-15T02:28:30.060Z,14.68
2019-01-15T02:30:56.775Z,15.35
2019-01-15T02:33:23.494Z,17.50
2019-01-15T02:35:50.197Z,15.25
2019-01-15T02:38:16.907Z,14.03
2019-01-15T02:40:43.711Z,13.72
2019-01-15T02:43:10.529Z,13.72
2019-01-15T02:45:37.223Z,14.75
2019-01-15T02:48:04.133Z,14.45
2019-01-15T02:50:30.928Z,14.58
2019-01-15T02:52:57.623Z,14.03
2019-01-15T02:55:24.326Z,15.15
2019-01-15T02:57:51.035Z,15.25
2019-01-15T03:00:19.889Z,14.55
2019-01-15T03:02:46.672Z,15.32
2019-01-15T03:05:14.111Z,14.43
2019-01-15T03:07:40.925Z,17.15
2019-01-15T03:10:10.308Z,16.87
2019-01-15T03:12:37.923Z,19.50
2019-01-15T03:15:05.350Z,17.85
2019-01-15T03:17:32.152Z,17.02
2019-01-15T03:19:58.860Z,18.48
2019-01-15T03:22:25.572Z,18.85
2019-01-15T03:24:52.291Z,19.27
2019-01-15T03:27:19.007Z,19.05
2019-01-15T03:29:45.711Z,19.00
2019-01-15T03:32:12.521Z,20.55
2019-01-15T03:34:39.221Z,19.87
2019-01-15T03:37:06.267Z,20.48
2019-01-15T03:39:32.980Z,19.52
2019-01-15T03:41:59.923Z,17.85
2019-01-15T03:44:26.699Z,19.57
2019-01-15T03:46:53.410Z,20.77
2019-01-15T03:49:20.116Z,20.20
2019-01-15T03:51:46.909Z,21.20
2019-01-15T03:54:13.815Z,20.43
2019-01-15T03:56:40.511Z,19.32
2019-01-15T03:59:07.221Z,20.45
2019-01-15T04:01:33.924Z,19.92
2019-01-15T04:04:00.647Z,21.55
2019-01-15T04:06:27.351Z,18.40
2019-01-15T04:08:54.062Z,21.00
2019-01-15T04:11:20.762Z,16.48
2019-01-15T04:13:47.487Z,18.62
2019-01-15T04:16:14.198Z,19.25
2019-01-15T04:18:40.905Z,19.20
2019-01-15T04:21:07.827Z,20.75
2019-01-15T04:23:34.535Z,20.75
2019-01-15T04:26:01.232Z,20.15
2019-01-15T04:28:27.937Z,18.65
2019-01-15T04:30:54.654Z,17.85
2019-01-15T04:33:21.464Z,19.45
2019-01-15T04:35:48.185Z,17.82
2019-01-15T04:38:14.901Z,17.92
2019-01-15T04:40:41.602Z,16.55
2019-01-15T04:43:08.327Z,16.15
2019-01-15T04:45:35.033Z,17.87
2019-01-15T04:48:01.744Z,16.48
2019-01-15T04:50:28.447Z,17.02
2019-01-15T04:53:00.651Z,16.35
2019-01-15T04:55:27.574Z,16.32
2019-01-15T04:57:54.298Z,16.52
2019-01-15T05:00:21.632Z,15.98
2019-01-15T05:02:48.745Z,17.52
2019-01-15T05:05:15.776Z,15.95
2019-01-15T05:07:42.943Z,16.12
2019-01-15T05:10:11.044Z,15.13
2019-01-15T05:12:37.859Z,16.73
2019-01-15T05:15:06.267Z,17.00
2019-01-15T05:17:32.982Z,16.93
2019-01-15T05:19:59.705Z,17.10
2019-01-15T05:22:26.403Z,14.55
2019-01-15T05:24:53.119Z,15.80
2019-01-15T05:27:19.841Z,14.90
2019-01-15T05:29:46.551Z,14.55
2019-01-15T05:32:13.395Z,13.20
2019-01-15T05:34:40.106Z,14.40
2019-01-15T05:37:06.811Z,14.28
2019-01-15T05:39:33.616Z,14.73
2019-01-15T05:42:00.333Z,14.95
2019-01-15T05:44:27.144Z,14.07
2019-01-15T05:46:53.940Z,14.80
2019-01-15T05:49:20.651Z,14.90
2019-01-15T05:51:47.367Z,16.35
2019-01-15T05:54:14.071Z,14.13
2019-01-15T05:56:40.879Z,15.80
2019-01-15T05:59:07.611Z,16.87
2019-01-15T06:01:35.727Z,15.68
2019-01-15T06:04:02.836Z,16.70
2019-01-15T06:06:29.548Z,17.95
2019-01-15T06:08:56.668Z,18.60
2019-01-15T06:11:23.378Z,19.32
2019-01-15T06:13:50.099Z,16.85
2019-01-15T06:16:16.807Z,17.92
2019-01-15T06:18:43.519Z,17.92
2019-01-15T06:21:10.230Z,18.67
2019-01-15T06:23:36.951Z,18.65
2019-01-15T06:26:03.914Z,21.62
2019-01-15T06:28:30.808Z,20.23
2019-01-15T06:30:57.520Z,20.82
2019-01-15T06:33:24.232Z,19.42
2019-01-15T06:35:51.366Z,19.48
2019-01-15T06:38:18.067Z,19.48
2019-01-15T06:40:45.216Z,20.55
2019-01-15T06:43:11.912Z,20.02
2019-01-15T06:45:38.879Z,22.17
2019-01-15T06:48:05.791Z,20.08
2019-01-15T06:50:32.503Z,21.23
2019-01-15T06:52:59.674Z,21.00
2019-01-15T06:55:26.472Z,21.80
2019-01-15T06:57:53.312Z,21.73
2019-01-15T07:00:25.239Z,22.32
2019-01-15T07:02:52.039Z,19.40
2019-01-15T07:05:19.132Z,18.37
2019-01-15T07:07:45.963Z,21.52
2019-01-15T07:10:16.310Z,20.57
2019-01-15T07:12:43.018Z,20.70
2019-01-15T07:15:09.923Z,23.10
2019-01-15T07:17:36.626Z,21.17
2019-01-15T07:20:04.559Z,18.27
2019-01-15T07:22:31.263Z,21.43
2019-01-15T07:24:57.979Z,20.63
2019-01-15T07:27:24.703Z,21.30
2019-01-15T07:29:51.415Z,18.95
2019-01-15T07:32:18.220Z,19.33
2019-01-15T07:34:44.926Z,20.70
2019-01-15T07:37:11.639Z,21.03
2019-01-15T07:39:38.459Z,21.83
2019-01-15T07:42:05.275Z,21.40
2019-01-15T07:44:32.003Z,20.68
2019-01-15T07:46:58.731Z,23.20
2019-01-15T07:49:25.446Z,20.37
2019-01-15T07:51:52.167Z,20.43
2019-01-15T07:54:18.967Z,20.80
2019-01-15T07:56:45.692Z,20.43
2019-01-15T07:59:12.415Z,22.20
2019-01-15T08:01:39.927Z,19.67
2019-01-15T08:04:06.637Z,22.37
2019-01-15T08:06:33.433Z,20.33
2019-01-15T08:09:00.147Z,20.05
2019-01-15T08:11:26.847Z,20.55
2019-01-15T08:13:53.567Z,19.40
2019-01-15T08:16:20.269Z,20.90
2019-01-15T08:18:46.975Z,20.50
2019-01-15T08:21:13.932Z,19.62
2019-01-15T08:23:40.639Z,18.87
2019-01-15T08:26:07.651Z,18.95
2019-01-15T08:28:34.374Z,20.25
2019-01-15T08:31:01.199Z,19.23
2019-01-15T08:33:28.011Z,20.80
2019-01-15T08:35:55.023Z,19.57
2019-01-15T08:38:21.831Z,19.20
2019-01-15T08:40:48.544Z,18.77
2019-01-15T08:43:15.251Z,17.83
2019-01-15T08:45:42.053Z,18.10
2019-01-15T08:48:17.131Z,16.73
2019-01-15T08:50:44.048Z,16.27
2019-01-15T08:53:12.055Z,18.23
2019-01-15T08:55:38.751Z,17.93
2019-01-15T08:58:05.690Z,17.90
2019-01-15T09:00:32.399Z,15.73
2019-01-15T09:02:59.107Z,17.73
2019-01-15T09:05:25.869Z,16.77
2019-01-15T09:07:52.775Z,16.70
2019-01-15T09:10:19.688Z,17.30
2019-01-15T09:12:46.587Z,16.50
2019-01-15T09:15:14.379Z,16.83
2019-01-15T09:17:41.395Z,15.57
2019-01-15T09:20:11.471Z,14.47
2019-01-15T09:22:38.273Z,15.17
2019-01-15T09:25:05.307Z,15.60
2019-01-15T09:27:32.031Z,16.53
2019-01-15T09:29:58.727Z,15.60
2019-01-15T09:32:25.444Z,14.27
2019-01-15T09:34:52.143Z,14.50
2019-01-15T09:37:19.260Z,14.80
2019-01-15T09:39:45.963Z,13.90
2019-01-15T09:42:13.413Z,14.17
2019-01-15T09:44:40.419Z,13.03
2019-01-15T09:47:07.324Z,13.33
2019-01-15T09:49:34.131Z,13.23
2019-01-15T09:52:00.839Z,12.07
2019-01-15T09:54:27.556Z,11.53
2019-01-15T09:56:54.307Z,12.13
2019-01-15T09:59:21.001Z,11.97
2019-01-15T10:01:47.821Z,11.13
2019-01-15T10:04:14.543Z,10.30
2019-01-15T10:06:41.259Z,10.40
2019-01-15T10:09:08.605Z,10.70
2019-01-15T10:11:35.424Z,10.70
2019-01-15T10:14:02.547Z,9.97
2019-01-15T10:16:29.355Z,9.07
2019-01-15T10:18:56.074Z,9.10
2019-01-15T10:21:22.875Z,8.83
2019-01-15T10:23:49.593Z,9.10
2019-01-15T10:26:16.631Z,8.53
2019-01-15T10:28:43.336Z,8.07
2019-01-15T10:31:55.675Z,8.57
2019-01-15T10:34:29.231Z,7.23
2019-01-15T10:36:55.279Z,7.17
2019-01-15T10:39:22.007Z,6.90
2019-01-15T10:41:48.708Z,7.00
2019-01-15T10:44:15.423Z,7.13
2019-01-15T10:46:42.431Z,6.33
2019-01-15T10:49:09.157Z,6.40
2019-01-15T10:51:35.862Z,6.67
2019-01-15T10:54:03.184Z,5.90
2019-01-15T10:56:29.871Z,5.83
2019-01-15T10:58:57.043Z,5.53
2019-01-15T11:01:24.046Z,5.77
2019-01-15T11:03:50.755Z,5.97
2019-01-15T11:06:17.559Z,5.30
2019-01-15T11:08:46.867Z,5.30
2019-01-15T11:11:13.567Z,5.30
2019-01-15T11:13:40.275Z,5.00
2019-01-15T11:16:07.416Z,4.83
2019-01-15T11:18:34.108Z,4.83
2019-01-15T11:21:00.927Z,4.97
2019-01-15T11:23:27.741Z,4.30
2019-01-15T11:25:54.487Z,4.83
2019-01-15T11:28:21.416Z,4.80
2019-01-15T11:30:48.111Z,4.53
2019-01-15T11:33:14.832Z,4.57
2019-01-15T11:35:41.545Z,4.83
2019-01-15T11:38:08.259Z,4.40
2019-01-15T11:40:35.178Z,4.20
2019-01-15T11:43:01.975Z,4.63
2019-01-15T11:45:28.687Z,4.30
2019-01-15T11:47:55.510Z,3.93
2019-01-15T11:50:22.215Z,4.50
2019-01-15T11:52:49.035Z,4.77
2019-01-15T11:55:15.943Z,4.27
2019-01-15T11:57:42.751Z,3.90
2019-01-15T12:00:18.168Z,4.27
2019-01-15T12:02:53.489Z,4.03
2019-01-15T12:05:38.295Z,4.10
2019-01-15T12:08:31.216Z,4.10
2019-01-15T12:11:16.276Z,3.70
2019-01-15T12:13:52.151Z,4.40
2019-01-15T12:16:41.575Z,3.90
2019-01-15T12:19:25.568Z,4.00
2019-01-15T12:22:04.583Z,3.83
2019-01-15T12:24:49.282Z,3.70
2019-01-15T12:27:35.675Z,3.97
2019-01-15T12:30:39.159Z,3.90
2019-01-15T12:33:34.308Z,3.80
2019-01-15T12:36:16.635Z,4.23
2019-01-15T12:39:17.811Z,3.43
2019-01-15T12:42:02.363Z,3.70
2019-01-15T12:44:47.583Z,3.80
2019-01-15T12:47:23.497Z,3.97
2019-01-15T12:50:05.506Z,4.03
2019-01-15T12:52:47.907Z,3.83
2019-01-15T12:55:37.279Z,3.50
2019-01-15T12:58:32.579Z,3.70
2019-01-15T13:01:17.415Z,4.00
2019-01-15T13:03:58.827Z,3.80
2019-01-15T13:06:44.309Z,4.00
2019-01-15T13:09:30.935Z,4.53
2019-01-15T13:12:16.194Z,4.40
2019-01-15T13:15:01.264Z,3.93
2019-01-15T13:18:06.610Z,4.40
2019-01-15T13:20:51.640Z,3.70
2019-01-15T13:23:37.252Z,4.20
2019-01-15T13:26:29.715Z,4.13
2019-01-15T13:29:22.087Z,4.10
2019-01-15T13:31:56.671Z,4.37
2019-01-15T13:34:45.654Z,4.07
2019-01-15T13:37:47.415Z,5.17
2019-01-15T13:40:33.796Z,4.87
2019-01-15T13:43:38.367Z,4.37
2019-01-15T13:46:12.444Z,4.27
2019-01-15T13:48:58.819Z,4.27
2019-01-15T13:51:35.201Z,4.13
2019-01-15T13:54:25.702Z,4.23
2019-01-15T13:57:10.627Z,4.30
2019-01-15T13:59:48.645Z,3.97
2019-01-15T14:02:37.896Z,4.07
2019-01-15T14:05:25.371Z,4.07
2019-01-15T14:08:14.659Z,4.07
2019-01-15T14:11:00.123Z,4.33
2019-01-15T14:13:45.212Z,4.10
2019-01-15T14:16:43.316Z,3.87
2019-01-15T14:19:28.332Z,3.77
2019-01-15T14:22:13.215Z,4.50
2019-01-15T14:24:58.606Z,4.33
2019-01-15T14:27:42.088Z,4.00
2019-01-15T14:30:35.449Z,4.40
2019-01-15T14:33:13.155Z,4.40
2019-01-15T14:36:14.343Z,4.27
2019-01-15T14:38:59.286Z,4.10
2019-01-15T14:41:51.451Z,4.23
2019-01-15T14:44:48.073Z,4.07
2019-01-15T14:47:37.052Z,4.20
2019-01-15T14:50:23.571Z,3.90
2019-01-15T14:53:06.948Z,4.10
2019-01-15T14:55:52.071Z,4.50
2019-01-15T14:58:37.209Z,3.83
2019-01-15T15:01:23.600Z,3.97
2019-01-15T15:04:08.975Z,3.97
2019-01-15T15:07:07.163Z,3.90
2019-01-15T15:10:02.296Z,4.47
2019-01-15T15:12:51.271Z,3.67
2019-01-15T15:15:36.603Z,3.90
2019-01-15T15:18:35.284Z,4.07
2019-01-15T15:21:27.499Z,3.90
2019-01-15T15:24:12.823Z,3.53
2019-01-15T15:26:46.490Z,3.87
2019-01-15T15:29:36.995Z,4.13
2019-01-15T15:32:26.355Z,4.40
2019-01-15T15:35:05.755Z,4.00
2019-01-15T15:38:01.339Z,4.30
2019-01-15T15:40:42.847Z,4.10
2019-01-15T15:43:35.556Z,4.30
2019-01-15T15:46:34.555Z,4.50
2019-01-15T15:49:30.892Z,4.40
2019-01-15T15:52:20.267Z,4.60
2019-01-15T15:55:07.888Z,4.50
2019-01-15T15:57:52.972Z,4.60
2019-01-15T16:00:36.711Z,4.53
2019-01-15T16:03:19.103Z,4.60
2019-01-15T16:05:58.661Z,4.60
2019-01-15T16:08:41.259Z,5.10
2019-01-15T16:11:33.799Z,4.90
2019-01-15T16:14:23.007Z,4.90
2019-01-15T16:17:09.988Z,4.60
2019-01-15T16:20:08.381Z,4.50
2019-01-15T16:22:57.335Z,5.23
2019-01-15T16:25:46.600Z,5.10
2019-01-15T16:28:40.160Z,4.13
2019-01-15T16:31:29.107Z,4.30
2019-01-15T16:34:27.239Z,4.50
2019-01-15T16:37:25.483Z,5.10
2019-01-15T16:40:10.226Z,4.63
2019-01-15T16:42:45.584Z,4.53
2019-01-15T16:45:31.351Z,4.53
2019-01-15T16:48:16.543Z,4.57
2019-01-15T16:51:03.863Z,5.23
2019-01-15T16:54:00.406Z,4.67
2019-01-15T16:56:45.411Z,5.33
2019-01-15T16:59:39.455Z,5.07
2019-01-15T17:02:20.739Z,5.07
2019-01-15T17:05:08.679Z,4.90
2019-01-15T17:07:55.151Z,5.03
2019-01-15T17:10:44.547Z,5.03
2019-01-15T17:13:32.687Z,5.30
2019-01-15T17:16:17.788Z,5.13
2019-01-15T17:19:04.171Z,5.30
2019-01-15T17:21:49.227Z,5.23
2019-01-15T17:24:39.728Z,6.03
2019-01-15T17:27:33.403Z,5.43
2019-01-15T17:30:21.900Z,5.27
2019-01-15T17:32:58.634Z,5.67
2019-01-15T17:35:43.400Z,5.90
2019-01-15T17:38:34.604Z,5.50
2019-01-15T17:41:13.655Z,7.33
2019-01-15T17:44:00.035Z,5.97
2019-01-15T17:46:52.275Z,5.70
2019-01-15T17:49:34.779Z,6.20
2019-01-15T17:52:12.683Z,6.43
2019-01-15T17:54:47.915Z,6.27
2019-01-15T17:57:32.904Z,5.63
2019-01-15T18:00:19.284Z,6.07
2019-01-15T18:03:11.323Z,5.67
2019-01-15T18:05:57.019Z,5.87
2019-01-15T18:08:35.151Z,5.80
2019-01-15T18:11:24.568Z,5.60
2019-01-15T18:14:26.893Z,5.97
2019-01-15T18:17:01.399Z,5.53
2019-01-15T18:19:47.271Z,5.53
2019-01-15T18:22:37.743Z,5.70
2019-01-15T18:25:23.226Z,5.53
2019-01-15T18:28:08.281Z,5.70
2019-01-15T18:31:13.187Z,6.03
2019-01-15T18:33:50.443Z,5.93
2019-01-15T18:36:35.275Z,6.03
2019-01-15T18:39:30.324Z,5.57
2019-01-15T18:42:16.095Z,5.93
2019-01-15T18:45:07.731Z,5.70
2019-01-15T18:47:59.508Z,6.03
2019-01-15T18:50:44.511Z,6.07
2019-01-15T18:53:30.888Z,5.83
2019-01-15T18:56:08.539Z,5.83
2019-01-15T18:58:56.347Z,5.53
2019-01-15T19:01:41.171Z,5.60
2019-01-15T19:04:27.319Z,5.87
2019-01-15T19:07:12.004Z,6.00
2019-01-15T19:10:07.391Z,5.80
2019-01-15T19:12:56.555Z,5.90
2019-01-15T19:15:57.728Z,5.80
2019-01-15T19:18:43.292Z,5.93
2019-01-15T19:21:29.679Z,6.00
2019-01-15T19:24:08.975Z,5.87
2019-01-15T19:26:54.193Z,5.90
2019-01-15T19:29:38.350Z,5.57
2019-01-15T19:32:27.510Z,5.77
2019-01-15T19:35:13.987Z,6.63
2019-01-15T19:37:58.980Z,6.03
2019-01-15T19:41:03.383Z,6.10
2019-01-15T19:43:41.708Z,5.70
2019-01-15T19:46:26.843Z,6.33
2019-01-15T19:49:06.951Z,5.53
2019-01-15T19:51:52.143Z,5.50
2019-01-15T19:54:36.776Z,5.93
2019-01-15T19:57:10.335Z,5.43
2019-01-15T19:59:55.484Z,5.60
2019-01-15T20:02:30.583Z,5.50
2019-01-15T20:05:16.951Z,5.83
2019-01-15T20:08:02.088Z,5.53
2019-01-15T20:10:43.376Z,5.30
2019-01-15T20:13:45.317Z,5.37
2019-01-15T20:16:39.077Z,5.30
2019-01-15T20:19:23.556Z,6.27
2019-01-15T20:22:12.792Z,5.83
2019-01-15T20:25:02.183Z,6.20
2019-01-15T20:27:51.311Z,6.60
2019-01-15T20:30:32.659Z,6.63
2019-01-15T20:33:11.957Z,5.97
2019-01-15T20:35:57.848Z,6.80
2019-01-15T20:38:40.490Z,6.87
2019-01-15T20:41:25.305Z,6.67
2019-01-15T20:44:12.439Z,7.20
2019-01-15T20:46:50.179Z,7.40
2019-01-15T20:49:39.380Z,8.00
2019-01-15T20:52:24.280Z,8.40
2019-01-15T20:55:13.297Z,8.27
2019-01-15T20:58:08.624Z,8.53
2019-01-15T21:01:12.960Z,8.47
2019-01-15T21:03:58.228Z,9.53
2019-01-15T21:06:43.373Z,9.57
2019-01-15T21:09:26.343Z,10.13
2019-01-15T21:12:26.283Z,9.77
2019-01-15T21:15:20.849Z,9.57
2019-01-15T21:18:10.122Z,9.90
2019-01-15T21:20:59.585Z,9.87
2019-01-15T21:23:42.607Z,9.50
2019-01-15T21:26:37.766Z,10.07
2019-01-15T21:29:16.023Z,9.90
2019-01-15T21:32:03.351Z,9.73
2019-01-15T21:34:46.382Z,9.70
2019-01-15T21:37:40.651Z,10.10
2019-01-15T21:40:26.043Z,10.37
2019-01-15T21:43:03.831Z,10.90
2019-01-15T21:45:42.150Z,11.23
2019-01-15T21:48:22.159Z,10.13
2019-01-15T21:51:07.047Z,10.30
2019-01-15T21:53:59.323Z,10.97
2019-01-15T21:56:37.619Z,10.47
2019-01-15T21:59:18.707Z,10.57
2019-01-15T22:02:05.079Z,11.27
2019-01-15T22:04:57.444Z,10.97
2019-01-15T22:07:43.195Z,10.53
2019-01-15T22:10:28.333Z,10.90
2019-01-15T22:13:09.471Z,9.97
2019-01-15T22:15:54.719Z,10.27
2019-01-15T22:18:41.099Z,10.17
2019-01-15T22:21:21.927Z,9.47
2019-01-15T22:24:01.372Z,10.40
2019-01-15T22:26:47.781Z,9.80
2019-01-15T22:29:24.428Z,9.17
2019-01-15T22:32:16.705Z,9.10
2019-01-15T22:35:17.940Z,9.00
2019-01-15T22:37:51.923Z,8.47
2019-01-15T22:40:27.599Z,8.37
2019-01-15T22:43:12.918Z,8.50
2019-01-15T22:46:05.145Z,8.20
2019-01-15T22:48:41.771Z,8.80
2019-01-15T22:51:33.751Z,7.80
2019-01-15T22:54:25.975Z,7.90
2019-01-15T22:57:11.059Z,7.43
2019-01-15T22:59:56.104Z,7.53
2019-01-15T23:02:40.838Z,8.00
2019-01-15T23:05:36.421Z,7.80
2019-01-15T23:08:29.069Z,8.97
2019-01-15T23:11:11.815Z,8.63
2019-01-15T23:13:51.368Z,9.57
2019-01-15T23:16:24.179Z,9.87
2019-01-15T23:19:02.251Z,10.27
2019-01-15T23:21:47.055Z,10.57
2019-01-15T23:24:31.787Z,9.57
2019-01-15T23:27:10.495Z,9.53
2019-01-15T23:29:56.590Z,10.30
2019-01-15T23:32:30.599Z,11.17
2019-01-15T23:35:25.935Z,10.70
2019-01-15T23:38:18.150Z,11.40
2019-01-15T23:40:59.661Z,11.87
2019-01-15T23:44:01.195Z,12.37
2019-01-15T23:46:42.704Z,12.33
2019-01-15T23:49:32.052Z,12.63
2019-01-15T23:52:08.419Z,13.77
2019-01-15T23:54:54.831Z,12.93
2019-01-15T23:57:41.427Z,12.37
